Granby, Vermont
Current Conditions -  °F | °C
As of 9:55 PM on Saturday 25 Oct 2014 (Local Time) from KCDA Reporting Station
Light Rain Light Rain  
Wind Chill: 47°   Ceiling: 3100
Heat Index: 47°   Visibility: 2.5mi
Dew Point: 45°   Wind: 0mph
Humidity: 90%   Direction: NA
Pressure: 29.48"   Gusts: NA
Location:  44.57°N, 71.76°W
Report Text: KCDA 260155Z AUTO 00000KT 2 1/2SM -RA SCT017 BKN031 OVC050 09/07 A2948 RMK AO2 T00860071
Loading
Personal Weather Stations






























Interactive Weather Map
Tropical Storm Tracking
New forecast layout! Learn more

10-Day Weather Forecast

Advertisements
Track Severe Weather on mobile